• Join FlightAware (Why Join?)
  • Login
  • US Flag 
06:42AM EDT


 

Airport Tracker/Info


-or-


 

Live Flight TrackerFlight Track Log ✈ ASQ6137 ✈ 09-May-2013 ✈ KORD - KROC

Flight Track Log - Related Links

Times and Time Zones

All times are in EDT time to prevent confusion due to time zone crossing. See the ASQ6137 flight status page for this flight to view local times or setup timezone preferences in your user account.

Time Position Orientation Groundspeed Altitude Reporting Facility
EDT Latitude Longitude Course Direction KTS MPH feet Rate Location/Type
11:01AM 42.0000 -87.9500 37° Northeast 173 199 1,600  Level Chicago TRACON
11:02AM 42.0500 -87.9000 37° Northeast 222 255 3,600 1,860 Climbing Chicago TRACON
11:04AM 42.0783 -87.7483 76° East 266 306 6,800 1,860 Climbing Chicago Center
11:05AM 42.0839 -87.6428 86° East 278 320 8,900 1,740 Climbing Chicago Center
11:06AM 42.0894 -87.5339 86° East 287 330 10,500 1,260 Climbing Chicago Center
11:07AM 42.0956 -87.4122 86° East 314 361 11,600 960 Climbing Chicago Center
11:08AM 42.1011 -87.2792 87° East 343 395 12,600 960 Climbing Chicago Center
11:09AM 42.1089 -87.1392 86° East 367 422 13,600 1,020 Climbing Chicago Center
11:10AM 42.1153 -86.9661 87° East 383 441 14,800 1,200 Climbing Chicago Center
11:11AM 42.1194 -86.8200 88° East 389 448 16,100 1,200 Climbing Chicago Center
11:12AM 42.1261 -86.6728 86° East 385 443 17,400 1,200 Climbing Chicago Center
11:13AM 42.1314 -86.5267 87° East 389 448 18,600 1,200 Climbing Chicago Center
11:14AM 42.1361 -86.3819 87° East 389 448 19,900 1,200 Climbing Chicago Center
11:15AM 42.1400 -86.2369 88° East 389 448 21,100 1,200 Climbing Chicago Center
11:16AM 42.1456 -86.0875 87° East 396 456 22,400 1,260 Climbing Chicago Center
11:17AM 42.1594 -85.9222 83° East 397 457 23,800 1,260 Climbing Chicago Center
11:18AM 42.1708 -85.7731 84° East 400 460 25,100 1,200 Climbing Chicago Center
11:19AM 42.1825 -85.6258 84° East 400 460 26,400 1,080 Climbing Chicago Center
11:20AM 42.1944 -85.4781 84° East 400 460 27,400 960 Climbing Chicago Center
11:21AM 42.2089 -85.3047 84° East 392 451 28,400 960 Climbing Cleveland Center
11:22AM 42.2192 -85.1539 85° East 397 457 29,400 960 Climbing Cleveland Center
11:23AM 42.2314 -85.0006 84° East 402 463 30,400 960 Climbing Cleveland Center
11:24AM 42.2436 -84.8469 84° East 408 470 31,400 960 Climbing Cleveland Center
11:25AM 42.2533 -84.6906 85° East 408 470 32,400 780 Climbing Cleveland Center
11:26AM 42.2631 -84.5339 85° East 408 470 33,000 300 Climbing Cleveland Center
11:27AM 42.2747 -84.3692 84° East 422 486 33,000  Level Cleveland Center
11:28AM 42.2867 -84.1928 85° East 445 512 33,000  Level Cleveland Center
11:29AM 42.2964 -84.0136 86° East 465 535 33,000  Level Cleveland Center
11:30AM 42.3078 -83.8375 85° East 471 542 33,000  Level Cleveland Center
11:31AM 42.3167 -83.6639 86° East 471 542 33,000  Level Cleveland Center
11:32AM 42.3233 -83.4900 87° East 465 535 33,000  Level Cleveland Center
11:33AM 42.3336 -83.3331 85° East 460 529 33,000  Level Cleveland Center
11:34AM 42.3439 -83.1592 85° East 460 529 33,000  Level Cleveland Center
11:35AM 42.3539 -82.9856 85° East 460 529 33,000  Level Cleveland Center
11:36AM 42.3614 -82.8114 87° East 460 529 33,000  Level Cleveland Center
11:37AM 42.3689 -82.6347 87° East 452 520 33,000  Level Cleveland Center
11:38AM 42.3783 -82.4467 86° East 462 532 33,000  Level Cleveland Center
11:39AM 42.3872 -82.2728 86° East 456 525 33,000  Level Cleveland Center
11:40AM 42.3961 -82.0958 86° East 456 525 33,000  Level Cleveland Center
11:41AM 42.4044 -81.9244 86° East 456 525 33,000  Level Cleveland Center
11:42AM 42.4125 -81.7503 86° East 455 524 33,000 -300 Level Cleveland Center
11:43AM 42.4206 -81.5817 86° East 455 524 32,500 -900 Descending Cleveland Center
11:44AM 42.4258 -81.4131 88° East 455 524 31,300 -1,800 Descending Cleveland Center
11:45AM 42.4333 -81.2442 87° East 444 511 29,000 -2,100 Descending Cleveland Center
11:46AM 42.4383 -81.0897 87° East 444 511 27,100 -1,020 Descending Cleveland Center
11:47AM 42.4450 -80.9181 87° East 452 520 27,000 -60 Descending Cleveland Center
11:48AM 42.4517 -80.7408 87° East 458 527 27,000  Level Cleveland Center
11:49AM 42.4561 -80.5606 88° East 466 536 27,000 -480 Level Cleveland Center
11:50AM 42.4600 -80.3861 88° East 462 532 26,100 -960 Descending Cleveland Center
11:51AM 42.4678 -80.1919 87° East 468 539 25,100 -600 Descending Cleveland Center
11:52AM 42.4733 -80.0203 87° East 463 533 25,000 -60 Descending Cleveland Center
11:53AM 42.4831 -79.8653 85° East 458 527 25,000 -180 Level Cleveland Center
11:54AM 42.4839 -79.6964 90° East 458 527 24,700 -900 Descending Cleveland Center
11:55AM 42.4886 -79.5244 88° East 458 527 23,300 -1,440 Descending Cleveland Center
11:56AM 42.4914 -79.3667 89° East 444 511 21,900 -1,140 Descending Cleveland Center
11:57AM 42.5314 -79.2222 69° East 408 470 21,100 -1,380 Descending Cleveland Center
11:58AM 42.6050 -79.1136 47° Northeast 387 445 19,200 -1,920 Descending Cleveland Center
11:59AM 42.6828 -79.0044 46° Northeast 387 445 17,300 -2,100 Descending Cleveland Center
12:00PM 42.7544 -78.9008 47° Northeast 381 438 15,100 -2,220 Descending Cleveland Center
12:01PM 42.8236 -78.7997 47° Northeast 368 423 12,900 -1,860 Descending Cleveland Center
12:02PM 42.8950 -78.6986 46° Northeast 362 417 11,400 -1,380 Descending Cleveland Center
12:03PM 42.9167 -78.6500 59° Northeast 353 406 11,100 -420 Descending Buffalo TRACON
12:03PM 42.9411 -78.5839 63° Northeast 357 411 11,000 -60 Descending Cleveland Center
12:04PM 42.9678 -78.4497 75° East 342 394 11,000 -180 Level Cleveland Center
12:05PM 42.9811 -78.3811 75° East 375 432 10,800 -780 Descending Cleveland Center
12:05PM 42.9967 -78.3153 72° East 340 391 10,300 -900 Descending Cleveland Center
12:06PM 43.0172 -78.2064 75° East 281 323 9,500 -900 Descending Cleveland Center
12:07PM 43.0358 -78.1036 76° East 281 323 8,500 -960 Descending Cleveland Center
12:08PM 43.0736 -78.0167 59° Northeast 273 314 7,600 -960 Descending Cleveland Center
12:09PM 43.1306 -77.9489 41° Northeast 262 302 6,600 -1,020 Descending Cleveland Center
12:10PM 43.1853 -77.8869 40° Northeast 257 296 5,600 -1,020 Descending Cleveland Center
12:11PM 43.2400 -77.8189 42° Northeast 268 308 4,600 -1,380 Descending Cleveland Center
12:12PM 43.2906 -77.7481 46° Northeast 262 302 2,900 -1,080 Descending Cleveland Center
12:13PM 43.3047 -77.6533 78° East 250 288 2,500 -240 Descending Cleveland Center
12:14PM 43.2856 -77.5600 106° East 262 302 2,500  Level Cleveland Center